Terminal Aerodrome Forecast
Issued by NWS Grand Forks, ND

Home | Current Version | Previous Version | Graphics & Text | Print | Product List | Glossary On
Versions: 1 2 3 4 5 6 7 8 9 10 11 12 13 14 15 16 17 18 19 20
218
FTUS43 KFGF 221133
TAFGFK
TAF
KGFK 221133Z 2212/2312 35008KT 5SM BR OVC003
      TEMPO 2212/2214 3SM BR
     FM221500 01010KT P6SM -RASN OVC003
     FM221700 01013G18KT 5SM -RASN OVC003
     FM221900 36014G20KT 4SM -SN OVC004
     FM230000 35014KT P6SM OVC015
     FM230500 35008KT P6SM BKN020=

USA.gov is the U.S. government's official web portal to all federal, state and local government web resources and services.